createdAt,value
2024-03-12T00:00:24.873Z,5.88
2024-03-12T00:02:52.768Z,3.70
2024-03-12T00:05:21.580Z,7.30
2024-03-12T00:07:51.130Z,8.98
2024-03-12T00:10:22.461Z,7.05
2024-03-12T00:12:53.812Z,9.27
2024-03-12T00:15:27.115Z,8.07
2024-03-12T00:17:56.519Z,9.23
2024-03-12T00:20:35.222Z,5.63
2024-03-12T00:23:03.723Z,9.32
2024-03-12T00:25:32.154Z,9.75
2024-03-12T00:28:00.579Z,11.40
2024-03-12T00:30:29.693Z,6.65
2024-03-12T00:33:02.411Z,6.50
2024-03-12T00:35:34.309Z,6.63
2024-03-12T00:38:05.046Z,19.95
2024-03-12T00:40:35.658Z,5.78
2024-03-12T00:43:10.172Z,4.88
2024-03-12T00:48:17.253Z,5.30
2024-03-12T00:53:15.610Z,4.53
2024-03-12T00:55:48.981Z,6.32
2024-03-12T00:58:17.400Z,13.80
2024-03-12T01:03:15.291Z,6.82
2024-03-12T01:05:44.270Z,5.90
2024-03-12T01:08:13.610Z,8.98
2024-03-12T01:10:41.842Z,5.70
2024-03-12T01:13:13.015Z,9.75
2024-03-12T01:15:41.852Z,4.50
2024-03-12T01:18:10.363Z,6.57
2024-03-12T01:20:38.479Z,6.95
2024-03-12T01:23:07.614Z,11.52
2024-03-12T01:25:37.825Z,4.50
2024-03-12T01:28:08.425Z,8.88
2024-03-12T01:30:38.465Z,7.88
2024-03-12T01:33:07.684Z,11.27
2024-03-12T01:35:41.076Z,8.98
2024-03-12T01:40:40.913Z,4.85
2024-03-12T01:43:09.477Z,7.03
2024-03-12T01:45:38.314Z,4.53
2024-03-12T01:48:10.292Z,5.25
2024-03-12T01:50:40.940Z,7.60
2024-03-12T01:53:09.959Z,13.13
2024-03-12T01:55:41.687Z,7.43
2024-03-12T01:58:20.092Z,10.55
2024-03-12T02:00:48.698Z,12.27
2024-03-12T02:03:20.505Z,8.57
2024-03-12T02:05:49.072Z,11.05
2024-03-12T02:08:18.745Z,7.82
2024-03-12T02:10:47.452Z,10.75
2024-03-12T02:13:16.581Z,4.65
2024-03-12T02:18:12.276Z,5.13
2024-03-12T02:20:40.322Z,5.07
2024-03-12T02:23:08.146Z,7.07
2024-03-12T02:25:36.608Z,5.68
2024-03-12T02:28:04.749Z,3.80
2024-03-12T02:30:32.996Z,7.10
2024-03-12T02:33:01.234Z,5.70
2024-03-12T02:35:28.684Z,6.10
2024-03-12T02:37:56.645Z,3.38
2024-03-12T02:40:24.223Z,10.20
2024-03-12T02:42:51.771Z,6.40
2024-03-12T02:45:22.510Z,14.68
2024-03-12T02:47:51.366Z,12.13
2024-03-12T02:50:19.854Z,10.63
2024-03-12T02:52:47.783Z,10.63
2024-03-12T02:55:15.962Z,27.98
2024-03-12T02:57:43.733Z,10.07
2024-03-12T03:00:16.305Z,24.33
2024-03-12T03:02:45.717Z,12.80
2024-03-12T03:05:14.810Z,35.03
2024-03-12T03:07:43.797Z,22.58
2024-03-12T03:10:13.738Z,15.77
2024-03-12T03:12:43.464Z,22.70
2024-03-12T03:15:15.109Z,16.88
2024-03-12T03:17:44.717Z,10.70
2024-03-12T03:20:13.654Z,15.43
2024-03-12T03:22:41.506Z,17.45
2024-03-12T03:25:13.600Z,25.63
2024-03-12T03:27:41.626Z,14.32
2024-03-12T03:30:11.562Z,8.65
2024-03-12T03:32:40.819Z,13.00
2024-03-12T03:35:08.906Z,21.35
2024-03-12T03:40:06.190Z,14.35
2024-03-12T03:42:34.388Z,21.23
2024-03-12T03:45:02.662Z,17.40
2024-03-12T03:47:36.424Z,9.85
2024-03-12T03:50:09.276Z,12.52
2024-03-12T03:52:41.645Z,19.55
2024-03-12T03:55:10.912Z,24.13
2024-03-12T03:57:38.896Z,16.35
2024-03-12T04:00:14.484Z,13.57
2024-03-12T04:02:45.002Z,21.77
2024-03-12T04:05:13.673Z,23.98
2024-03-12T04:07:42.564Z,32.03
2024-03-12T04:10:14.792Z,40.75
2024-03-12T04:12:48.649Z,37.55
2024-03-12T04:15:16.408Z,54.15
2024-03-12T04:17:45.800Z,34.22
2024-03-12T04:20:14.282Z,27.95
2024-03-12T04:22:45.010Z,22.08
2024-03-12T04:25:14.264Z,18.58
2024-03-12T04:27:42.593Z,23.30
2024-03-12T04:32:40.840Z,25.80
2024-03-12T04:35:14.299Z,11.00
2024-03-12T04:37:42.700Z,12.77
2024-03-12T04:40:13.026Z,17.95
2024-03-12T04:42:41.501Z,7.60
2024-03-12T04:45:10.095Z,10.45
2024-03-12T04:47:43.254Z,6.90
2024-03-12T04:50:13.549Z,7.65
2024-03-12T04:52:45.561Z,15.38
2024-03-12T04:55:14.968Z,13.70
2024-03-12T04:57:42.761Z,13.60
2024-03-12T05:00:20.651Z,17.02
2024-03-12T05:02:50.986Z,27.20
2024-03-12T05:05:19.810Z,10.93
2024-03-12T05:07:48.229Z,21.55
2024-03-12T05:10:16.079Z,25.25
2024-03-12T05:12:46.954Z,14.68
2024-03-12T05:15:14.820Z,19.85
2024-03-12T05:17:42.737Z,18.73
2024-03-12T05:20:19.620Z,22.02
2024-03-12T05:22:48.309Z,15.27
2024-03-12T05:25:28.372Z,19.60
2024-03-12T05:27:57.129Z,17.85
2024-03-12T05:30:25.114Z,17.77
2024-03-12T05:32:55.506Z,15.45
2024-03-12T05:35:24.391Z,11.25
2024-03-12T05:38:05.001Z,26.83
2024-03-12T05:41:07.264Z,20.95
2024-03-12T05:43:55.092Z,29.38
2024-03-12T05:46:49.011Z,16.55
2024-03-12T05:49:17.261Z,12.30
2024-03-12T05:51:45.495Z,17.40
2024-03-12T05:56:41.028Z,22.95
2024-03-12T06:01:36.999Z,10.45
2024-03-12T06:04:06.439Z,10.68
2024-03-12T06:06:34.441Z,14.45
2024-03-12T06:09:02.487Z,30.92
2024-03-12T06:11:31.385Z,9.27
2024-03-12T06:14:02.189Z,11.18
2024-03-12T06:16:31.749Z,11.57
2024-03-12T06:18:59.832Z,18.10
2024-03-12T06:21:27.842Z,14.40
2024-03-12T06:23:55.569Z,17.02
2024-03-12T06:26:23.872Z,14.90
2024-03-12T06:31:20.397Z,7.85
2024-03-12T06:33:48.176Z,14.02
2024-03-12T06:36:17.028Z,11.70
2024-03-12T06:38:45.305Z,23.20
2024-03-12T06:43:42.440Z,15.27
2024-03-12T06:46:13.464Z,10.40
2024-03-12T06:48:43.107Z,10.13
2024-03-12T06:51:12.197Z,10.15
2024-03-12T06:53:39.736Z,10.18
2024-03-12T06:56:08.667Z,8.70
2024-03-12T06:58:40.652Z,6.80
2024-03-12T07:01:11.315Z,6.07
2024-03-12T07:03:41.488Z,8.63
2024-03-12T07:06:09.471Z,6.35
2024-03-12T07:08:40.462Z,6.55
2024-03-12T07:11:09.317Z,8.50
2024-03-12T07:13:41.741Z,5.80
2024-03-12T07:16:11.546Z,4.97
2024-03-12T07:18:39.957Z,6.28
2024-03-12T07:23:36.345Z,6.00
2024-03-12T07:26:04.326Z,2.85
2024-03-12T07:28:32.373Z,4.38
2024-03-12T07:31:00.263Z,3.13
2024-03-12T07:33:28.891Z,1.67
2024-03-12T07:35:56.663Z,1.85
2024-03-12T07:38:25.694Z,3.78
2024-03-12T07:40:53.692Z,4.72
2024-03-12T07:43:21.902Z,3.00
2024-03-12T07:48:17.462Z,4.65
2024-03-12T07:50:45.598Z,3.28
2024-03-12T07:53:14.030Z,3.20
2024-03-12T07:58:12.622Z,6.68
2024-03-12T08:00:40.648Z,8.73
2024-03-12T08:03:08.959Z,6.13
2024-03-12T08:05:37.536Z,2.97
2024-03-12T08:08:07.795Z,2.85
2024-03-12T08:10:35.636Z,5.18
2024-03-12T08:13:03.458Z,5.30
2024-03-12T08:15:31.151Z,3.60
2024-03-12T08:18:06.150Z,5.35
2024-03-12T08:20:40.994Z,3.65
2024-03-12T08:23:08.632Z,5.38
2024-03-12T08:25:49.946Z,5.43
2024-03-12T08:28:23.071Z,4.70
2024-03-12T08:30:51.212Z,2.30
2024-03-12T08:33:20.600Z,4.88
2024-03-12T08:35:48.291Z,3.78
2024-03-12T08:38:16.473Z,6.28
2024-03-12T08:40:44.598Z,2.05
2024-03-12T08:45:41.321Z,2.03
2024-03-12T08:48:09.133Z,4.82
2024-03-12T08:50:37.144Z,5.88
2024-03-12T08:53:05.573Z,2.58
2024-03-12T08:55:33.658Z,4.32
2024-03-12T08:58:01.431Z,3.47
2024-03-12T09:00:30.409Z,6.32
2024-03-12T09:03:01.126Z,6.03
2024-03-12T09:05:28.751Z,3.78
2024-03-12T09:07:56.674Z,3.33
2024-03-12T09:12:51.868Z,7.82
2024-03-12T09:15:21.740Z,2.47
2024-03-12T09:17:51.143Z,4.47
2024-03-12T09:22:46.417Z,2.15
2024-03-12T09:25:15.785Z,6.43
2024-03-12T09:27:48.052Z,2.33
2024-03-12T09:30:18.523Z,1.80
2024-03-12T09:32:46.302Z,8.25
2024-03-12T09:35:14.071Z,6.05
2024-03-12T09:37:42.080Z,6.20
2024-03-12T09:40:13.222Z,3.28
2024-03-12T09:42:45.907Z,4.35
2024-03-12T09:45:13.963Z,13.55
2024-03-12T09:47:43.716Z,4.30
2024-03-12T09:50:13.452Z,4.30
2024-03-12T09:52:41.615Z,21.70
2024-03-12T09:55:12.982Z,74.65
2024-03-12T09:57:46.321Z,2.33
2024-03-12T10:00:20.721Z,3.60
2024-03-12T10:02:49.701Z,5.10
2024-03-12T10:05:24.697Z,4.93
2024-03-12T10:08:15.151Z,10.88
2024-03-12T10:10:48.092Z,4.63
2024-03-12T10:13:18.159Z,4.88
2024-03-12T10:16:05.336Z,1.90
2024-03-12T10:18:40.662Z,3.15
2024-03-12T10:21:08.983Z,3.00
2024-03-12T10:23:41.649Z,2.25
2024-03-12T10:26:18.250Z,7.70
2024-03-12T10:28:47.306Z,5.55
2024-03-12T10:31:16.459Z,7.18
2024-03-12T10:33:52.497Z,2.38
2024-03-12T10:36:34.508Z,2.15
2024-03-12T10:39:08.265Z,8.02
2024-03-12T10:41:36.390Z,2.67
2024-03-12T10:44:09.071Z,1.73
2024-03-12T10:46:37.829Z,4.43
2024-03-12T10:49:11.607Z,4.93
2024-03-12T10:54:15.724Z,2.97
2024-03-12T10:56:49.540Z,5.03
2024-03-12T11:01:49.716Z,4.07
2024-03-12T11:04:18.836Z,4.47
2024-03-12T11:06:49.686Z,4.68
2024-03-12T11:09:23.487Z,6.65
2024-03-12T11:11:51.504Z,5.18
2024-03-12T11:14:19.376Z,13.52
2024-03-12T11:16:47.590Z,5.78
2024-03-12T11:19:20.685Z,4.07
2024-03-12T11:21:51.226Z,5.78
2024-03-12T11:24:44.881Z,84.32
2024-03-12T11:27:26.661Z,6.22
2024-03-12T11:30:09.991Z,10.40
2024-03-12T11:32:41.145Z,14.38
2024-03-12T11:35:31.644Z,3.65
2024-03-12T11:38:01.999Z,2.72
2024-03-12T11:40:41.293Z,6.82
2024-03-12T11:43:18.362Z,6.93
2024-03-12T11:45:49.049Z,4.10
2024-03-12T11:48:22.027Z,2.85
2024-03-12T11:50:56.209Z,8.38
2024-03-12T11:53:24.811Z,13.65
2024-03-12T11:56:09.264Z,6.00
2024-03-12T11:58:48.429Z,4.50
2024-03-12T12:01:21.860Z,1.80
2024-03-12T12:04:00.944Z,8.77
2024-03-12T12:06:29.487Z,3.58
2024-03-12T12:09:00.803Z,4.38
2024-03-12T12:11:30.132Z,9.93
2024-03-12T12:14:16.493Z,3.85
2024-03-12T12:16:44.547Z,5.05
2024-03-12T12:19:18.704Z,5.20
2024-03-12T12:21:53.676Z,4.60
2024-03-12T12:24:26.621Z,4.43
2024-03-12T12:26:57.625Z,3.60
2024-03-12T12:29:30.401Z,3.95
2024-03-12T12:31:59.448Z,4.25
2024-03-12T12:34:30.016Z,4.50
2024-03-12T12:36:58.835Z,6.15
2024-03-12T12:39:36.675Z,5.20
2024-03-12T12:44:38.969Z,2.72
2024-03-12T12:47:07.026Z,3.00
2024-03-12T12:49:36.694Z,5.10
2024-03-12T12:52:05.442Z,6.72
2024-03-12T12:54:34.626Z,11.00
2024-03-12T12:57:03.053Z,14.07
2024-03-12T12:59:36.150Z,33.05
2024-03-12T13:02:15.045Z,4.88
2024-03-12T13:04:42.863Z,6.05
2024-03-12T13:09:38.719Z,7.53
2024-03-12T13:12:11.003Z,3.85
2024-03-12T13:14:38.904Z,3.22
2024-03-12T13:17:10.534Z,4.93
2024-03-12T13:19:38.424Z,3.63
2024-03-12T13:24:43.615Z,9.18
2024-03-12T13:27:11.659Z,3.63
2024-03-12T13:32:07.642Z,5.32
2024-03-12T13:34:37.240Z,6.75
2024-03-12T13:37:07.965Z,10.27
2024-03-12T13:39:35.958Z,5.57
2024-03-12T13:42:06.880Z,37.10
2024-03-12T13:44:34.656Z,4.28
2024-03-12T13:47:04.563Z,3.88
2024-03-12T13:49:32.897Z,5.85
2024-03-12T13:52:01.471Z,3.95
2024-03-12T13:54:29.253Z,5.25
2024-03-12T13:56:57.317Z,3.95
2024-03-12T13:59:25.467Z,5.60
2024-03-12T14:01:54.374Z,5.47
2024-03-12T14:04:22.734Z,5.10
2024-03-12T14:09:18.888Z,7.55
2024-03-12T14:11:49.293Z,8.77
2024-03-12T14:14:17.453Z,5.05
2024-03-12T14:16:48.096Z,7.93
2024-03-12T14:19:15.870Z,8.77
2024-03-12T14:21:43.583Z,10.23
2024-03-12T14:26:39.479Z,9.05
2024-03-12T14:29:08.080Z,10.13
2024-03-12T14:31:35.801Z,13.10
2024-03-12T14:34:05.708Z,24.40
2024-03-12T14:36:33.626Z,14.35
2024-03-12T14:39:01.297Z,16.80
2024-03-12T14:41:29.407Z,11.57
2024-03-12T14:43:58.606Z,11.30
2024-03-12T14:46:26.609Z,7.72
2024-03-12T14:48:56.465Z,17.65
2024-03-12T14:51:24.634Z,10.40
2024-03-12T14:56:20.200Z,15.80
2024-03-12T14:58:48.178Z,15.25
2024-03-12T15:01:16.052Z,15.02
2024-03-12T15:03:45.086Z,13.10
2024-03-12T15:06:13.736Z,9.68
2024-03-12T15:08:41.806Z,11.15
2024-03-12T15:13:38.086Z,6.97
2024-03-12T15:16:08.238Z,22.13
2024-03-12T15:18:36.734Z,13.60
2024-03-12T15:21:06.666Z,13.93
2024-03-12T15:23:34.460Z,11.73
2024-03-12T15:26:03.980Z,13.10
2024-03-12T15:28:31.642Z,24.15
2024-03-12T15:30:59.209Z,20.70
2024-03-12T15:33:33.171Z,23.88
2024-03-12T15:36:01.525Z,25.35
2024-03-12T15:38:30.004Z,19.13
2024-03-12T15:40:58.925Z,14.93
2024-03-12T15:43:26.784Z,20.77
2024-03-12T15:45:54.894Z,22.77
2024-03-12T15:48:24.884Z,17.10
2024-03-12T15:50:53.664Z,30.85
2024-03-12T15:53:21.464Z,46.63
2024-03-12T15:55:49.680Z,31.63
2024-03-12T15:58:17.771Z,38.67
2024-03-12T16:03:13.714Z,19.88
2024-03-12T16:05:43.018Z,18.60
2024-03-12T16:08:10.819Z,15.38
2024-03-12T16:10:39.704Z,12.80
2024-03-12T16:13:08.735Z,17.13
2024-03-12T16:15:37.294Z,28.63
2024-03-12T16:18:07.122Z,19.92
2024-03-12T16:20:34.677Z,28.15
2024-03-12T16:23:02.407Z,34.47
2024-03-12T16:25:30.542Z,30.48
2024-03-12T16:27:58.416Z,30.80
2024-03-12T16:30:26.149Z,22.83
2024-03-12T16:32:55.034Z,24.98
2024-03-12T16:35:24.944Z,23.55
2024-03-12T16:37:52.760Z,19.52
2024-03-12T16:40:21.401Z,26.23
2024-03-12T16:42:49.884Z,24.98
2024-03-12T16:45:17.651Z,48.03
2024-03-12T16:47:45.513Z,41.88
2024-03-12T16:50:16.573Z,41.67
2024-03-12T16:52:44.906Z,34.67
2024-03-12T16:57:40.983Z,22.50
2024-03-12T17:02:43.923Z,25.38
2024-03-12T17:05:14.304Z,21.33
2024-03-12T17:07:44.065Z,17.88
2024-03-12T17:10:14.054Z,26.40
2024-03-12T17:12:42.752Z,24.35
2024-03-12T17:15:11.019Z,35.50
2024-03-12T17:17:42.978Z,48.17
2024-03-12T17:20:11.645Z,40.17
2024-03-12T17:22:41.879Z,37.42
2024-03-12T17:25:14.701Z,32.53
2024-03-12T17:27:43.238Z,27.55
2024-03-12T17:30:12.510Z,25.67
2024-03-12T17:32:42.116Z,32.50
2024-03-12T17:35:14.791Z,32.20
2024-03-12T17:37:45.119Z,19.30
2024-03-12T17:40:17.341Z,18.85
2024-03-12T17:42:47.121Z,19.83
2024-03-12T17:45:17.200Z,17.25
2024-03-12T17:47:49.549Z,22.05
2024-03-12T17:50:23.006Z,18.52
2024-03-12T17:52:58.692Z,37.50
2024-03-12T17:55:28.168Z,28.52
2024-03-12T17:57:56.671Z,31.00
2024-03-12T18:00:25.726Z,50.90
2024-03-12T18:02:56.448Z,43.67
2024-03-12T18:05:24.675Z,31.65
2024-03-12T18:10:27.702Z,28.77
2024-03-12T18:12:56.427Z,26.17
2024-03-12T18:15:25.275Z,25.52
2024-03-12T18:17:53.712Z,21.58
2024-03-12T18:20:25.653Z,15.55
2024-03-12T18:22:54.556Z,12.27
2024-03-12T18:25:22.959Z,16.48
2024-03-12T18:27:57.501Z,10.02
2024-03-12T18:30:26.915Z,12.40
2024-03-12T18:32:55.815Z,14.70
2024-03-12T18:35:24.479Z,9.05
2024-03-12T18:37:55.277Z,14.50
2024-03-12T18:40:23.910Z,8.07
2024-03-12T18:42:52.864Z,8.90
2024-03-12T18:45:23.716Z,15.55
2024-03-12T18:47:52.413Z,13.90
2024-03-12T18:50:22.014Z,11.05
2024-03-12T18:52:50.147Z,11.73
2024-03-12T18:55:19.375Z,13.85
2024-03-12T18:57:47.660Z,18.90
2024-03-12T19:00:20.173Z,35.35
2024-03-12T19:02:50.086Z,33.13
2024-03-12T19:05:19.205Z,25.30
2024-03-12T19:07:51.875Z,20.23
2024-03-12T19:10:21.383Z,37.80
2024-03-12T19:12:50.758Z,36.58
2024-03-12T19:15:22.877Z,33.55
2024-03-12T19:17:52.475Z,33.03
2024-03-12T19:20:21.412Z,33.33
2024-03-12T19:22:51.955Z,31.08
2024-03-12T19:25:20.717Z,40.90
2024-03-12T19:27:50.470Z,29.15
2024-03-12T19:30:26.156Z,34.28
2024-03-12T19:32:54.591Z,33.63
2024-03-12T19:35:23.228Z,29.33
2024-03-12T19:37:51.215Z,22.40
2024-03-12T19:40:23.061Z,29.67
2024-03-12T19:42:53.693Z,24.20
2024-03-12T19:45:29.090Z,36.50
2024-03-12T19:50:28.060Z,35.15
2024-03-12T19:52:56.828Z,37.65
2024-03-12T19:55:32.094Z,42.75
2024-03-12T19:58:02.035Z,29.35
2024-03-12T20:00:32.229Z,43.25
2024-03-12T20:03:03.617Z,24.15
2024-03-12T20:05:34.049Z,19.27
2024-03-12T20:08:03.475Z,28.58
2024-03-12T20:10:31.226Z,21.02
2024-03-12T20:12:59.842Z,20.25
2024-03-12T20:15:29.407Z,22.83
2024-03-12T20:17:57.236Z,24.80
2024-03-12T20:20:24.884Z,38.15
2024-03-12T20:22:53.006Z,22.88
2024-03-12T20:25:23.634Z,23.25
2024-03-12T20:27:55.187Z,20.00
2024-03-12T20:30:28.427Z,23.15
2024-03-12T20:33:00.122Z,29.73
2024-03-12T20:35:29.261Z,21.40
2024-03-12T20:40:27.216Z,37.35
2024-03-12T20:43:00.403Z,30.65
2024-03-12T20:45:30.491Z,45.17
2024-03-12T20:47:59.678Z,52.88
2024-03-12T20:50:27.645Z,27.45
2024-03-12T20:52:56.128Z,25.33
2024-03-12T20:55:25.356Z,20.42
2024-03-12T20:57:53.654Z,23.75
2024-03-12T21:00:34.521Z,30.17
2024-03-12T21:03:02.642Z,65.60
2024-03-12T21:05:31.971Z,42.92
2024-03-12T21:08:00.082Z,45.03
2024-03-12T21:10:28.548Z,48.03
2024-03-12T21:12:57.255Z,48.08
2024-03-12T21:15:24.990Z,44.90
2024-03-12T21:17:54.531Z,38.97
2024-03-12T21:20:34.007Z,50.83
2024-03-12T21:23:05.081Z,37.15
2024-03-12T21:25:34.872Z,42.95
2024-03-12T21:28:02.914Z,43.95
2024-03-12T21:30:30.522Z,40.95
2024-03-12T21:32:58.794Z,38.03
2024-03-12T21:35:26.628Z,34.97
2024-03-12T21:37:54.530Z,31.98
2024-03-12T21:40:24.335Z,47.58
2024-03-12T21:42:54.875Z,34.55
2024-03-12T21:45:22.487Z,36.58
2024-03-12T21:47:51.260Z,37.03
2024-03-12T21:50:19.368Z,20.02
2024-03-12T21:52:47.264Z,37.38
2024-03-12T21:55:15.890Z,28.40
2024-03-12T21:57:45.315Z,33.30
2024-03-12T22:00:20.654Z,34.30
2024-03-12T22:02:50.071Z,35.80
2024-03-12T22:05:21.358Z,33.95
2024-03-12T22:07:52.156Z,29.50
2024-03-12T22:10:20.213Z,30.40
2024-03-12T22:15:16.894Z,30.00
2024-03-12T22:17:46.152Z,23.45
2024-03-12T22:20:20.123Z,19.45
2024-03-12T22:22:49.249Z,30.77
2024-03-12T22:25:18.029Z,19.83
2024-03-12T22:27:50.209Z,19.63
2024-03-12T22:30:18.678Z,21.30
2024-03-12T22:32:47.551Z,12.88
2024-03-12T22:35:15.322Z,19.52
2024-03-12T22:37:44.956Z,16.25
2024-03-12T22:40:14.125Z,15.93
2024-03-12T22:42:42.708Z,14.32
2024-03-12T22:45:12.984Z,17.23
2024-03-12T22:47:41.583Z,17.52
2024-03-12T22:50:10.254Z,11.70
2024-03-12T22:52:38.208Z,17.75
2024-03-12T22:55:07.518Z,12.43
2024-03-12T22:57:40.063Z,13.32
2024-03-12T23:00:27.760Z,14.20
2024-03-12T23:03:03.062Z,14.50
2024-03-12T23:05:37.322Z,14.98
2024-03-12T23:08:07.048Z,10.65
2024-03-12T23:10:41.174Z,12.55
2024-03-12T23:15:40.354Z,9.43
2024-03-12T23:18:10.938Z,11.73
2024-03-12T23:20:46.299Z,10.85
2024-03-12T23:23:15.371Z,10.68
2024-03-12T23:25:43.735Z,16.40
2024-03-12T23:28:12.377Z,10.80
2024-03-12T23:30:40.292Z,10.15
2024-03-12T23:33:09.701Z,11.85
2024-03-12T23:35:38.079Z,17.05
2024-03-12T23:38:06.994Z,11.68
2024-03-12T23:40:34.863Z,13.85
2024-03-12T23:43:02.639Z,14.73
2024-03-12T23:45:32.397Z,12.60
2024-03-12T23:48:04.258Z,18.15
2024-03-12T23:50:32.325Z,17.58
2024-03-12T23:53:00.428Z,22.20
2024-03-12T23:55:27.952Z,17.25
2024-03-12T23:57:55.701Z,17.65
